Time;durP1;ratioP1;P1;durP2;ratioP2;P2;SDS_P1;SDS_P2;PMS_P1;PMS_P2;Temp;Humidity;BMP_temperature;BMP_pressure;BME280_temperature;BME280_humidity;BME280_pressure;Samples;Min_cycle;Max_cycle;Signal;HPM_P1;HPM_P2
2023/01/19 00:02:07;;;;;;;22.73;9.40;;;;;;;-4.89;100.00;97796.34;5060012;28;20028;-66
2023/01/19 00:04:33;;;;;;;19.88;9.82;;;;;;;-4.90;100.00;97793.81;5086629;28;20459;-66
2023/01/19 00:07:01;;;;;;;22.95;9.80;;;;;;;-4.82;100.00;97795.81;5052501;28;20066;-66
2023/01/19 00:09:32;;;;;;;26.30;9.65;;;;;;;-4.73;100.00;97806.41;5054924;28;20039;-66
2023/01/19 00:11:58;;;;;;;23.17;10.57;;;;;;;-4.61;100.00;97804.53;5057621;28;20043;-67
2023/01/19 00:14:23;;;;;;;23.80;10.40;;;;;;;-4.64;100.00;97805.63;5052278;28;20020;-67
2023/01/19 00:16:48;;;;;;;25.20;10.85;;;;;;;-4.69;100.00;97809.59;5054617;28;20028;-66
2023/01/19 00:19:14;;;;;;;21.52;9.55;;;;;;;-4.73;100.00;97806.41;5059734;28;20039;-66
2023/01/19 00:21:39;;;;;;;24.73;9.70;;;;;;;-4.70;100.00;97803.50;5057542;28;20035;-66
2023/01/19 00:24:05;;;;;;;26.00;9.80;;;;;;;-4.71;100.00;97812.41;5056001;28;20112;-67
2023/01/19 00:26:30;;;;;;;26.48;9.88;;;;;;;-4.85;100.00;97802.19;5053591;28;20029;-66
2023/01/19 00:28:55;;;;;;;26.73;10.60;;;;;;;-4.79;100.00;97812.22;5058931;28;20498;-67
2023/01/19 00:31:21;;;;;;;22.60;10.35;;;;;;;-4.64;100.00;97810.91;5095586;28;20028;-66
2023/01/19 00:33:48;;;;;;;23.52;10.80;;;;;;;-4.56;100.00;97793.56;5053216;28;20028;-66
2023/01/19 00:36:13;;;;;;;22.17;10.20;;;;;;;-4.34;100.00;97808.38;5054234;28;20502;-66
2023/01/19 00:38:39;;;;;;;25.90;11.02;;;;;;;-4.23;100.00;97810.91;5060917;28;20021;-66
2023/01/19 00:41:04;;;;;;;20.17;9.38;;;;;;;-4.12;100.00;97810.78;5053295;28;20021;-66
2023/01/19 00:43:30;;;;;;;22.92;10.50;;;;;;;-4.14;100.00;97812.72;5055759;28;20537;-67
2023/01/19 00:45:55;;;;;;;22.65;9.18;;;;;;;-4.13;100.00;97808.28;5070650;28;20066;-66
2023/01/19 00:48:20;;;;;;;19.02;9.57;;;;;;;-4.06;100.00;97809.41;5056019;28;20073;-66
2023/01/19 00:50:47;;;;;;;19.67;9.90;;;;;;;-3.95;100.00;97814.59;5050051;28;20039;-65
2023/01/19 00:53:13;;;;;;;19.10;10.35;;;;;;;-3.85;100.00;97810.16;5053707;28;20024;-65
2023/01/19 00:55:38;;;;;;;23.80;10.65;;;;;;;-3.76;100.00;97798.75;5054773;28;20110;-65
2023/01/19 00:58:05;;;;;;;25.30;10.98;;;;;;;-3.68;100.00;97810.44;5063184;28;20537;-65
2023/01/19 01:00:30;;;;;;;29.50;10.95;;;;;;;-3.62;100.00;97807.22;5059087;28;20554;-65
2023/01/19 01:02:56;;;;;;;30.70;11.07;;;;;;;-3.61;100.00;97807.09;5055333;28;20021;-65
2023/01/19 01:05:22;;;;;;;25.05;10.13;;;;;;;-3.67;100.00;97804.16;5057869;28;20023;-65
2023/01/19 01:07:48;;;;;;;25.17;11.30;;;;;;;-3.71;100.00;97805.44;5054264;28;20089;-65
2023/01/19 01:10:25;;;;;;;23.42;9.52;;;;;;;-3.73;100.00;97808.19;5052283;28;20112;-65
2023/01/19 01:12:51;;;;;;;27.35;9.73;;;;;;;-3.71;100.00;97802.78;5054884;28;20025;-65
2023/01/19 01:15:17;;;;;;;21.35;10.32;;;;;;;-3.67;100.00;97798.88;5068032;28;20418;-65
2023/01/19 01:17:51;;;;;;;23.80;9.93;;;;;;;-3.72;100.00;97799.31;5066900;28;20033;-65
2023/01/19 01:20:19;;;;;;;19.88;9.40;;;;;;;-3.72;100.00;97796.69;5062781;28;20471;-65
2023/01/19 01:22:49;;;;;;;19.35;9.48;;;;;;;-3.73;100.00;97800.28;5054316;28;20032;-65
2023/01/19 01:25:17;;;;;;;17.73;9.63;;;;;;;-3.72;100.00;97806.38;5056669;28;20112;-65
2023/01/19 01:27:42;;;;;;;22.95;10.35;;;;;;;-3.77;100.00;97801.53;5053449;28;20040;-65
2023/01/19 01:30:11;;;;;;;20.52;10.55;;;;;;;-3.81;100.00;97806.25;5062251;22;20404;-65
2023/01/19 01:32:37;;;;;;;20.27;10.00;;;;;;;-3.80;100.00;97815.00;5045977;28;20078;-66
2023/01/19 01:35:02;;;;;;;22.33;8.88;;;;;;;-3.76;100.00;97805.84;5041303;28;20022;-66
2023/01/19 01:37:28;;;;;;;19.50;9.20;;;;;;;-3.75;100.00;97805.72;5020298;28;20262;-66
2023/01/19 01:39:54;;;;;;;23.65;9.13;;;;;;;-3.86;100.00;97808.47;5027600;28;20539;-66
2023/01/19 01:42:25;;;;;;;19.88;9.68;;;;;;;-3.99;100.00;97811.38;5025832;28;20040;-66
2023/01/19 01:44:55;;;;;;;23.25;9.73;;;;;;;-4.01;100.00;97826.53;5026847;28;20030;-66
2023/01/19 01:47:44;;;;;;;20.50;9.35;;;;;;;-4.11;100.00;97820.41;5027472;28;20054;-66
2023/01/19 01:50:14;;;;;;;26.23;10.30;;;;;;;-4.10;100.00;97824.69;5031202;28;20060;-66
2023/01/19 01:52:45;;;;;;;22.08;9.80;;;;;;;-4.10;100.00;97829.16;5034119;28;20037;-66
2023/01/19 01:55:12;;;;;;;20.30;9.13;;;;;;;-4.13;100.00;97827.59;5040863;28;20016;-66
2023/01/19 01:57:47;;;;;;;16.33;8.57;;;;;;;-4.14;100.00;97833.84;5026310;28;20029;-66
2023/01/19 02:00:13;;;;;;;18.67;8.90;;;;;;;-4.17;100.00;97828.84;5028957;28;20032;-67
2023/01/19 02:02:53;;;;;;;20.77;10.20;;;;;;;-4.15;100.00;97826.91;5028523;28;20083;-66
2023/01/19 02:05:25;;;;;;;19.40;9.27;;;;;;;-4.09;100.00;97842.19;5028716;28;20026;-67
2023/01/19 02:13:45;;;;;;;21.00;9.55;;;;;;;-3.98;100.00;97838.63;5027930;28;20112;-66
2023/01/19 02:16:13;;;;;;;21.95;9.95;;;;;;;-4.06;100.00;97831.38;5039769;28;20116;-66
2023/01/19 02:18:39;;;;;;;22.25;10.35;;;;;;;-4.03;100.00;97825.00;5034112;28;20029;-66
2023/01/19 02:21:30;;;;;;;22.08;9.95;;;;;;;-4.07;100.00;97823.59;5033986;28;20040;-66
2023/01/19 02:23:57;;;;;;;22.20;8.80;;;;;;;-4.07;100.00;97820.94;5020221;28;20021;-66
2023/01/19 02:26:30;;;;;;;21.23;9.25;;;;;;;-4.17;100.00;97823.56;5029107;28;20035;-66
2023/01/19 02:28:59;;;;;;;25.50;9.90;;;;;;;-4.16;100.00;97832.34;5029938;28;20025;-66
2023/01/19 02:31:25;;;;;;;23.77;9.60;;;;;;;-4.21;100.00;97832.72;5036391;28;20032;-66
2023/01/19 02:33:52;;;;;;;19.52;9.35;;;;;;;-4.13;100.00;97819.69;5036466;28;20998;-65
2023/01/19 02:36:22;;;;;;;25.95;10.40;;;;;;;-4.11;100.00;97822.19;5028262;28;20030;-65
2023/01/19 02:38:49;;;;;;;21.77;9.27;;;;;;;-4.04;100.00;97820.66;5025995;28;20076;-65
2023/01/19 02:41:20;;;;;;;21.88;9.02;;;;;;;-4.07;100.00;97824.41;5025518;28;20026;-65
2023/01/19 02:43:47;;;;;;;20.67;8.98;;;;;;;-4.18;100.00;97820.09;5021428;28;20098;-65
2023/01/19 02:46:14;;;;;;;23.90;9.23;;;;;;;-4.21;100.00;97825.66;5025509;28;20036;-65
2023/01/19 02:48:40;;;;;;;18.92;9.00;;;;;;;-4.28;100.00;97816.59;5027338;28;20029;-65
2023/01/19 02:51:24;;;;;;;19.08;9.07;;;;;;;-4.37;100.00;97829.78;5028355;28;20029;-65
2023/01/19 02:54:13;;;;;;;20.98;9.00;;;;;;;-4.46;100.00;97836.66;5037349;28;20013;-65
2023/01/19 02:57:02;;;;;;;21.52;9.20;;;;;;;-4.58;100.00;97829.81;5020837;28;20038;-65
2023/01/19 02:59:28;;;;;;;;;;;;;;;-4.64;100.00;97837.31;5031093;28;20049;-65
2023/01/19 03:02:00;;;;;;;20.27;8.70;;;;;;;-4.60;100.00;97832.59;5028827;28;20054;-65
2023/01/19 03:04:55;;;;;;;23.23;9.40;;;;;;;-4.51;100.00;97823.03;5025205;28;20111;-65
2023/01/19 03:07:35;;;;;;;24.35;10.20;;;;;;;-4.44;100.00;97837.38;5007916;28;20507;-65
2023/01/19 03:10:17;;;;;;;22.30;9.30;;;;;;;-4.48;100.00;97835.94;5029000;28;20394;-65
2023/01/19 03:12:52;;;;;;;20.98;9.88;;;;;;;-4.47;100.00;97837.66;5037016;28;20072;-65
2023/01/19 03:15:29;;;;;;;18.40;9.23;;;;;;;-4.46;100.00;97839.31;5024392;28;20017;-65
2023/01/19 03:17:59;;;;;;;24.63;10.00;;;;;;;-4.48;100.00;97842.09;5033687;28;20036;-65
2023/01/19 03:20:27;;;;;;;19.15;9.35;;;;;;;-4.49;100.00;97836.94;5035618;28;20030;-65
2023/01/19 03:23:07;;;;;;;21.77;9.57;;;;;;;-4.54;100.00;97839.13;5027853;28;20029;-65
2023/01/19 03:25:36;;;;;;;22.60;9.60;;;;;;;-4.55;100.00;97848.03;5030335;28;20029;-65
2023/01/19 03:28:03;;;;;;;20.48;9.38;;;;;;;-4.64;100.00;97847.84;5026706;28;20022;-65
2023/01/19 03:30:45;;;;;;;17.85;9.70;;;;;;;-4.71;100.00;97840.59;5055669;28;20029;-65
2023/01/19 03:33:15;;;;;;;26.55;9.90;;;;;;;-4.72;100.00;97834.47;5037146;28;20032;-65
2023/01/19 03:35:47;;;;;;;19.17;9.32;;;;;;;-4.77;100.00;97836.66;5027710;28;20037;-65
2023/01/19 03:38:16;;;;;;;22.63;9.73;;;;;;;-4.80;100.00;97836.09;5032108;28;20021;-65
2023/01/19 03:40:44;;;;;;;20.20;7.90;;;;;;;-4.74;100.00;97846.97;5045680;28;20026;-65
2023/01/19 03:43:11;;;;;;;23.30;9.95;;;;;;;-4.76;100.00;97853.34;5037329;28;20396;-65
2023/01/19 03:45:38;;;;;;;20.90;9.48;;;;;;;-4.73;100.00;97843.34;5027943;28;20025;-65
2023/01/19 03:48:04;;;;;;;23.13;10.10;;;;;;;-4.73;100.00;97848.63;5041391;28;20065;-65
2023/01/19 03:50:30;;;;;;;25.00;10.38;;;;;;;-4.81;100.00;97837.06;5033524;28;20018;-65
2023/01/19 03:53:09;;;;;;;24.02;9.52;;;;;;;-4.76;100.00;97850.69;5031792;28;20037;-65
2023/01/19 03:55:36;;;;;;;15.30;7.68;;;;;;;-4.82;100.00;97849.44;5030015;28;20040;-65
2023/01/19 03:58:01;;;;;;;26.13;10.02;;;;;;;-4.86;100.00;97853.28;5037027;28;20115;-65
2023/01/19 04:00:27;;;;;;;22.23;9.38;;;;;;;-4.93;100.00;97846.84;5027739;28;20549;-66
2023/01/19 04:02:54;;;;;;;23.25;10.10;;;;;;;-4.94;100.00;97850.47;5035966;28;20026;-66
2023/01/19 04:05:21;;;;;;;21.63;10.45;;;;;;;-4.84;100.00;97848.72;5020390;28;20041;-66
2023/01/19 04:07:50;;;;;;;18.90;9.07;;;;;;;-4.78;100.00;97858.75;5037674;28;20068;-66
2023/01/19 04:11:07;;;;;;;22.92;9.90;;;;;;;-4.88;100.00;97852.56;5026213;28;20021;-67
2023/01/19 04:13:33;;;;;;;23.75;9.82;;;;;;;-5.02;100.00;97850.28;5092333;22;20028;-78
2023/01/19 04:16:00;;;;;;;27.70;9.90;;;;;;;-4.83;100.00;97855.66;5091633;28;20126;-78
2023/01/19 04:18:29;;;;;;;19.35;9.30;;;;;;;-4.72;100.00;97854.72;5109248;28;20046;-78
2023/01/19 04:21:02;;;;;;;25.52;9.98;;;;;;;-4.61;100.00;97838.84;5097020;28;20034;-77
2023/01/19 04:23:28;;;;;;;23.35;10.07;;;;;;;-4.43;100.00;97861.00;5096003;28;20102;-78
2023/01/19 04:25:57;;;;;;;21.35;10.63;;;;;;;-4.37;100.00;97864.91;5092838;28;20123;-78
2023/01/19 04:28:23;;;;;;;24.83;9.57;;;;;;;-4.43;100.00;97858.38;5097069;28;20107;-77
2023/01/19 04:30:50;;;;;;;20.67;10.57;;;;;;;-4.26;100.00;97856.06;5111136;28;20019;-78
2023/01/19 04:33:16;;;;;;;19.88;10.27;;;;;;;-4.24;100.00;97844.41;5096602;28;20020;-77
2023/01/19 04:35:43;;;;;;;25.67;11.07;;;;;;;-4.00;100.00;97856.44;5113588;28;20629;-78
2023/01/19 04:38:08;;;;;;;24.27;10.65;;;;;;;-3.86;100.00;97869.25;5114295;28;20086;-77
2023/01/19 04:40:33;;;;;;;26.08;9.73;;;;;;;-3.84;100.00;97856.72;5113438;28;20053;-77
2023/01/19 04:42:59;;;;;;;24.05;10.02;;;;;;;-3.77;100.00;97857.88;5086732;28;20063;-78
2023/01/19 04:45:24;;;;;;;24.40;10.30;;;;;;;-3.88;100.00;97839.47;5090554;28;20023;-78
2023/01/19 04:47:50;;;;;;;21.92;9.63;;;;;;;-3.89;100.00;97858.94;5094042;28;20027;-74
2023/01/19 04:50:16;;;;;;;17.42;8.30;;;;;;;-4.02;100.00;97851.25;5111557;27;20031;-75
2023/01/19 04:52:41;;;;;;;20.35;9.30;;;;;;;-4.01;100.00;97863.53;5094195;28;20947;-74
2023/01/19 04:55:07;;;;;;;17.35;8.48;;;;;;;-4.00;100.00;97859.91;5091573;28;20055;-76
2023/01/19 04:57:32;;;;;;;21.33;8.70;;;;;;;-4.04;100.00;97849.72;5090411;28;20039;-77
2023/01/19 05:00:20;;;;;;;17.00;8.95;;;;;;;-3.98;100.00;97865.88;5107507;28;20514;-78
2023/01/19 05:02:46;;;;;;;21.23;8.73;;;;;;;-4.05;100.00;97864.75;5085197;28;20028;-79
2023/01/19 05:05:12;;;;;;;19.02;8.68;;;;;;;-4.05;100.00;97863.91;5091798;28;20031;-78
2023/01/19 05:07:38;;;;;;;24.83;9.50;;;;;;;-4.12;100.00;97868.88;5085713;28;20038;-79
2023/01/19 05:10:04;;;;;;;24.27;9.95;;;;;;;-4.23;100.00;97866.34;5104998;28;20480;-79
2023/01/19 05:12:29;;;;;;;16.25;8.18;;;;;;;-4.22;100.00;97850.41;5096824;28;20076;-80
2023/01/19 05:14:55;;;;;;;20.10;8.63;;;;;;;-4.24;100.00;97857.59;5113401;28;20035;-80
2023/01/19 05:17:21;;;;;;;19.58;8.85;;;;;;;-4.15;100.00;97876.25;5088618;28;20081;-79
2023/01/19 05:19:47;;;;;;;20.23;8.07;;;;;;;-4.16;100.00;97877.25;5095269;28;20471;-80
2023/01/19 05:22:14;;;;;;;21.08;9.43;;;;;;;-4.11;100.00;97877.66;5096763;28;20110;-74
2023/01/19 05:24:39;;;;;;;21.08;8.15;;;;;;;-4.17;100.00;97868.44;5108326;28;20115;-76
2023/01/19 05:27:04;;;;;;;20.35;8.68;;;;;;;-4.22;100.00;97879.44;5111840;28;20102;-81
2023/01/19 05:29:40;;;;;;;22.00;9.60;;;;;;;-4.18;100.00;97885.28;5099089;28;20129;-81
2023/01/19 05:32:06;;;;;;;19.42;8.73;;;;;;;-4.08;100.00;97886.16;5104076;28;20496;-78
2023/01/19 05:34:31;;;;;;;16.75;8.18;;;;;;;-4.17;100.00;97860.53;5096904;28;20020;-75
2023/01/19 05:36:56;;;;;;;18.45;8.93;;;;;;;-4.10;100.00;97880.16;5109831;28;20482;-77
2023/01/19 05:39:21;;;;;;;21.48;9.65;;;;;;;-4.03;100.00;97885.75;5112614;28;20020;-79
2023/01/19 05:41:47;;;;;;;20.60;9.23;;;;;;;-4.12;100.00;97879.44;5095843;28;20027;-80
2023/01/19 05:44:12;;;;;;;21.50;8.48;;;;;;;-4.25;100.00;97869.13;5115428;28;20103;-79
2023/01/19 05:46:38;;;;;;;19.65;8.60;;;;;;;-4.08;100.00;97893.25;5109474;28;20024;-80
2023/01/19 05:49:03;;;;;;;21.63;9.23;;;;;;;-4.34;100.00;97855.91;5077807;28;20477;-79
2023/01/19 05:51:37;;;;;;;22.50;9.45;;;;;;;-4.10;100.00;97896.00;5078946;28;20019;-76
2023/01/19 05:54:07;;;;;;;18.35;8.93;;;;;;;-4.03;100.00;97891.03;5093771;28;20019;-78
2023/01/19 05:56:33;;;;;;;19.58;8.65;;;;;;;-4.03;100.00;97885.75;5106906;28;20034;-76
2023/01/19 05:58:59;;;;;;;21.65;8.95;;;;;;;-4.04;100.00;97892.00;5092028;28;20047;-80
2023/01/19 06:01:25;;;;;;;22.08;8.60;;;;;;;-4.03;100.00;97891.03;5089832;28;20020;-79
2023/01/19 06:03:50;;;;;;;23.70;8.98;;;;;;;-4.00;100.00;97910.09;5091560;28;20019;-81
2023/01/19 06:06:16;;;;;;;19.88;8.30;;;;;;;-4.09;100.00;97899.47;5094602;28;20065;-79
2023/01/19 06:08:41;;;;;;;19.80;8.70;;;;;;;-4.28;100.00;97879.13;5103101;28;20094;-78
2023/01/19 06:11:37;;;;;;;19.95;8.75;;;;;;;-4.19;100.00;97884.44;5109542;28;20070;-81
2023/01/19 06:14:03;;;;;;;21.75;9.57;;;;;;;-3.91;100.00;97921.66;5100632;28;20028;-81
2023/01/19 06:16:28;;;;;;;33.08;11.55;;;;;;;-4.12;100.00;97878.63;5093934;28;20114;-80
2023/01/19 06:19:01;;;;;;;31.25;10.80;;;;;;;-4.51;100.00;97833.59;5099308;28;20027;-82
2023/01/19 06:21:27;;;;;;;30.52;11.73;;;;;;;-4.61;100.00;97828.28;5104653;28;20041;-81
2023/01/19 06:23:52;;;;;;;31.08;11.70;;;;;;;-4.21;100.00;97880.28;5110724;28;20087;-78
2023/01/19 06:26:18;;;;;;;24.08;10.13;;;;;;;-3.97;100.00;97924.84;5114803;27;20088;-79
2023/01/19 06:28:43;;;;;;;21.40;9.35;;;;;;;-3.92;100.00;97927.91;5091256;28;20388;-80
2023/01/19 06:31:08;;;;;;;20.92;9.48;;;;;;;-3.84;100.00;97927.25;5097923;27;20094;-81
2023/01/19 06:33:33;;;;;;;21.85;8.82;;;;;;;-3.68;100.00;97929.38;5130993;27;20107;-79
2023/01/19 06:35:59;;;;;;;21.17;8.68;;;;;;;-3.71;100.00;97914.63;5095749;28;20027;-81
2023/01/19 06:38:24;;;;;;;22.67;9.00;;;;;;;-3.55;100.00;97935.25;5083470;28;20070;-81
2023/01/19 06:40:57;;;;;;;20.77;9.00;;;;;;;-3.45;100.00;97941.41;5098558;28;20091;-82
2023/01/19 06:43:23;;;;;;;19.20;8.82;;;;;;;-3.45;100.00;97932.63;5106471;28;20042;-81
2023/01/19 06:45:49;;;;;;;17.88;8.40;;;;;;;-3.28;100.00;97944.34;5105877;28;20549;-81
2023/01/19 06:48:14;;;;;;;20.60;8.88;;;;;;;-3.25;100.00;97934.31;5099903;28;20051;-81
2023/01/19 06:50:40;;;;;;;18.98;8.07;;;;;;;-3.13;100.00;97935.03;5109922;22;20496;-62
2023/01/19 06:53:06;;;;;;;17.75;7.93;;;;;;;-3.09;100.00;97939.09;5068046;28;20033;-62
2023/01/19 06:55:31;;;;;;;19.92;9.13;;;;;;;-3.07;100.00;97939.75;5058262;28;20123;-62
2023/01/19 06:57:58;;;;;;;19.23;7.47;;;;;;;-3.14;100.00;97931.56;5051079;28;20125;-62
2023/01/19 07:00:24;;;;;;;21.70;8.50;;;;;;;-3.15;100.00;97932.50;5050830;28;20505;-63
2023/01/19 07:02:49;;;;;;;17.33;9.05;;;;;;;-3.21;100.00;97926.97;5054979;28;20112;-62
2023/01/19 07:05:15;;;;;;;19.55;8.90;;;;;;;-3.27;100.00;97930.16;5054065;28;20025;-63
2023/01/19 07:07:42;;;;;;;19.67;8.75;;;;;;;-3.42;100.00;97929.72;5052113;28;20377;-62
2023/01/19 07:10:10;;;;;;;17.25;8.18;;;;;;;-3.44;100.00;97932.47;5046057;28;20370;-62
2023/01/19 07:12:36;;;;;;;21.50;8.15;;;;;;;-3.48;100.00;97936.38;5052360;28;20024;-63
2023/01/19 07:15:02;;;;;;;25.33;9.32;;;;;;;-3.54;100.00;97929.84;5055324;28;20024;-63
2023/01/19 07:17:28;;;;;;;18.95;9.27;;;;;;;-3.63;100.00;97917.44;5051542;28;20556;-63
2023/01/19 07:19:53;;;;;;;17.30;8.68;;;;;;;-3.60;100.00;97924.25;5049395;28;20491;-63
2023/01/19 07:22:19;;;;;;;23.85;8.73;;;;;;;-3.70;100.00;97931.31;5048313;28;20103;-63
2023/01/19 07:24:44;;;;;;;19.95;9.35;;;;;;;-3.76;100.00;97922.13;5052703;28;20029;-63
2023/01/19 07:27:13;;;;;;;19.05;8.45;;;;;;;-3.74;100.00;97930.75;5051292;28;20025;-63
2023/01/19 07:29:38;;;;;;;16.25;8.63;;;;;;;-3.80;100.00;97939.22;5043062;28;20360;-63
2023/01/19 07:32:06;;;;;;;17.52;9.35;;;;;;;-3.76;100.00;97937.97;5052166;28;20040;-63
2023/01/19 07:34:31;;;;;;;21.70;8.95;;;;;;;-3.81;100.00;97941.03;5061061;28;20057;-63
2023/01/19 07:36:57;;;;;;;21.95;9.40;;;;;;;-3.82;100.00;97938.53;5053495;28;20488;-63
2023/01/19 07:39:22;;;;;;;17.73;8.80;;;;;;;-3.82;100.00;97944.66;5044630;28;20112;-63
2023/01/19 07:41:48;;;;;;;22.83;9.02;;;;;;;-3.80;100.00;97941.84;5054824;28;20035;-63
2023/01/19 07:44:15;;;;;;;21.33;9.38;;;;;;;-3.72;100.00;97936.75;5052376;28;20050;-63
2023/01/19 07:46:42;;;;;;;22.05;9.45;;;;;;;-3.57;100.00;97947.78;5046015;28;20075;-63
2023/01/19 07:49:07;;;;;;;19.20;8.93;;;;;;;-3.47;100.00;97953.91;5046054;28;20029;-63
2023/01/19 07:51:33;;;;;;;26.58;10.48;;;;;;;-3.32;100.00;97954.38;5047847;28;20117;-63
2023/01/19 07:53:58;;;;;;;21.80;10.68;;;;;;;-3.01;100.00;97954.25;5046478;28;20048;-63
2023/01/19 07:56:26;;;;;;;19.67;9.98;;;;;;;-2.47;100.00;97953.66;5049462;28;20025;-63
2023/01/19 07:58:52;;;;;;;19.38;9.60;;;;;;;-2.09;100.00;97954.56;5054390;28;20035;-63
2023/01/19 08:01:17;;;;;;;18.92;10.27;;;;;;;-2.08;100.00;97952.72;5050580;28;20028;-63
2023/01/19 08:03:43;;;;;;;19.67;8.43;;;;;;;-2.15;100.00;97949.81;5045716;28;20060;-63
2023/01/19 08:06:35;;;;;;;16.85;8.05;;;;;;;-2.03;100.00;97959.25;5052279;28;20408;-63
2023/01/19 08:09:04;;;;;;;17.60;7.70;;;;;;;-2.00;100.00;97944.88;5053545;28;20075;-63
2023/01/19 08:11:30;;;;;;;16.88;8.18;;;;;;;-1.88;100.00;97950.84;5043156;28;20037;-63
2023/01/19 08:13:56;;;;;;;18.77;9.02;;;;;;;-2.03;100.00;97953.13;5054281;28;20021;-63
2023/01/19 08:16:21;;;;;;;25.80;9.52;;;;;;;-2.05;100.00;97958.56;5055038;28;20025;-63
2023/01/19 08:18:46;;;;;;;18.65;9.05;;;;;;;-1.98;100.00;97954.34;5054556;28;20029;-63
2023/01/19 08:21:12;;;;;;;20.63;8.88;;;;;;;-1.75;100.00;97961.97;5053294;28;20115;-63
2023/01/19 08:23:37;;;;;;;22.27;9.93;;;;;;;-1.47;100.00;97952.16;5054230;28;20075;-63
2023/01/19 08:26:26;;;;;;;20.60;10.13;;;;;;;-1.08;100.00;97946.63;5052211;28;20451;-63
2023/01/19 08:28:53;;;;;;;16.63;8.20;;;;;;;-0.67;100.00;97949.66;5046706;28;20033;-63
2023/01/19 08:31:20;;;;;;;15.45;8.30;;;;;;;-0.60;100.00;97949.84;5054497;28;20112;-63
2023/01/19 08:33:45;;;;;;;17.02;8.27;;;;;;;-0.31;100.00;97947.78;5053146;28;20480;-63
2023/01/19 08:36:12;;;;;;;17.95;8.43;;;;;;;-0.23;100.00;97961.13;5052382;28;20037;-63
2023/01/19 08:38:40;;;;;;;17.08;8.68;;;;;;;0.06;100.00;97962.63;5048293;28;20108;-63
2023/01/19 08:41:06;;;;;;;13.27;6.82;;;;;;;0.28;100.00;97957.75;5046087;28;20025;-63
2023/01/19 08:43:32;;;;;;;18.00;7.63;;;;;;;0.12;100.00;97959.31;5049695;28;20033;-63
2023/01/19 08:45:57;;;;;;;14.80;7.10;;;;;;;-0.02;100.00;97965.25;5054635;28;20025;-63
2023/01/19 08:48:23;;;;;;;14.00;7.28;;;;;;;-0.18;100.00;97965.09;5056607;28;20028;-63
2023/01/19 08:50:51;;;;;;;13.80;7.05;;;;;;;0.07;100.00;97969.59;5055509;28;20025;-63
2023/01/19 08:53:18;;;;;;;15.27;7.10;;;;;;;0.18;100.00;97966.69;5047730;28;20020;-63
2023/01/19 08:55:43;;;;;;;13.65;6.57;;;;;;;-0.17;100.00;97958.81;5050695;28;20059;-63
2023/01/19 08:58:09;;;;;;;12.88;6.88;;;;;;;-0.28;100.00;97959.91;5053818;28;20025;-63
2023/01/19 09:00:36;;;;;;;16.23;6.55;;;;;;;-0.50;100.00;97958.56;5053127;28;20036;-63
2023/01/19 09:03:03;;;;;;;14.00;7.00;;;;;;;-0.69;100.00;97967.56;5051902;28;20443;-63
2023/01/19 09:05:34;;;;;;;11.82;6.68;;;;;;;-0.69;100.00;97972.88;5050269;28;20377;-63
2023/01/19 09:08:01;;;;;;;12.77;6.25;;;;;;;-0.15;100.00;97970.13;5052621;28;20090;-63
2023/01/19 09:10:30;;;;;;;15.02;6.05;;;;;;;0.80;100.00;97969.09;5050943;28;20029;-63
2023/01/19 09:12:56;;;;;;;17.60;6.68;;;;;;;1.56;100.00;97963.69;5053117;28;20029;-63
2023/01/19 09:15:22;;;;;;;16.52;7.47;;;;;;;1.18;100.00;97966.00;5048286;28;20032;-63
2023/01/19 09:17:47;;;;;;;20.60;7.68;;;;;;;0.86;100.00;97964.94;5036343;28;20370;-63
2023/01/19 09:20:13;;;;;;;12.85;6.68;;;;;;;0.94;100.00;97964.13;5049582;28;20040;-63
2023/01/19 09:22:39;;;;;;;12.95;6.47;;;;;;;0.68;100.00;97977.53;5051263;28;20137;-63
2023/01/19 09:25:06;;;;;;;11.40;6.40;;;;;;;0.86;100.00;97976.44;5049653;28;20040;-63
2023/01/19 09:27:31;;;;;;;13.95;6.50;;;;;;;0.72;100.00;97968.22;5047362;28;20033;-63
2023/01/19 09:29:57;;;;;;;12.05;6.50;;;;;;;0.62;100.00;97979.84;5049697;28;20075;-63
2023/01/19 09:32:25;;;;;;;11.73;6.43;;;;;;;0.52;100.00;97979.13;5053102;28;20021;-63
2023/01/19 09:34:52;;;;;;;14.25;6.10;;;;;;;0.48;100.00;97975.13;5043253;28;20075;-63
2023/01/19 09:37:44;;;;;;;13.85;6.70;;;;;;;0.61;100.00;97978.19;5041898;28;20032;-63
2023/01/19 09:40:10;;;;;;;15.48;6.45;;;;;;;0.10;100.00;97979.91;5051390;28;20032;-63
2023/01/19 09:43:15;;;;;;;13.38;5.85;;;;;;;0.14;100.00;97975.97;5052439;28;20013;-63
2023/01/19 09:45:49;;;;;;;14.05;6.50;;;;;;;-0.19;100.00;97971.44;5050706;28;20116;-63
2023/01/19 09:48:36;;;;;;;12.07;5.95;;;;;;;-0.12;100.00;97972.47;5048534;28;20037;-63
2023/01/19 09:51:12;;;;;;;14.20;6.10;;;;;;;-0.39;100.00;97970.78;5048410;28;20107;-63
2023/01/19 09:53:49;;;;;;;14.05;6.38;;;;;;;-0.30;100.00;97972.53;5043214;28;20025;-63
2023/01/19 09:56:16;;;;;;;15.60;6.50;;;;;;;-0.27;100.00;97975.69;5044401;28;20025;-63
2023/01/19 09:58:42;;;;;;;9.90;5.35;;;;;;;-0.13;100.00;97968.13;5049354;28;20037;-63
2023/01/19 10:01:18;;;;;;;12.07;6.22;;;;;;;0.16;100.00;97962.50;5049420;28;20028;-66
2023/01/19 10:03:44;;;;;;;12.10;6.07;;;;;;;0.20;100.00;97967.34;5050836;28;20345;-63
2023/01/19 10:06:12;;;;;;;14.63;5.22;;;;;;;0.55;100.00;97951.34;5044493;28;20037;-63
2023/01/19 10:08:58;;;;;;;16.65;5.55;;;;;;;0.48;100.00;97958.34;5050331;28;20028;-63
2023/01/19 10:11:35;;;;;;;13.93;5.57;;;;;;;0.39;100.00;97957.44;5045522;28;20086;-63
2023/01/19 10:14:10;;;;;;;10.25;5.70;;;;;;;0.41;100.00;97952.81;5038575;28;20434;-63
2023/01/19 10:17:07;;;;;;;10.50;4.78;;;;;;;0.57;100.00;97962.69;5036424;28;20021;-63
2023/01/19 10:19:36;;;;;;;15.63;5.80;;;;;;;0.80;100.00;97954.94;5057252;28;20029;-63
2023/01/19 10:22:17;;;;;;;9.93;5.78;;;;;;;0.70;100.00;97952.41;5052454;28;20028;-63
2023/01/19 10:24:44;;;;;;;12.77;5.00;;;;;;;0.78;100.00;97954.25;5048667;28;20056;-65
2023/01/19 10:27:16;;;;;;;11.45;4.88;;;;;;;0.77;100.00;97958.75;5050109;28;20021;-65
2023/01/19 10:29:44;;;;;;;13.90;5.85;;;;;;;1.15;100.00;97950.34;5052808;28;20514;-66
2023/01/19 10:32:18;;;;;;;12.30;5.45;;;;;;;1.05;100.00;97953.19;5043131;28;20044;-65
2023/01/19 10:34:45;;;;;;;14.13;5.15;;;;;;;1.02;100.00;97954.34;5049866;28;20086;-63
2023/01/19 10:37:30;;;;;;;10.10;5.70;;;;;;;1.09;100.00;97955.31;5052303;28;20089;-63
2023/01/19 10:40:13;;;;;;;13.18;5.30;;;;;;;1.56;100.00;97963.69;5058099;28;20036;-63
2023/01/19 10:42:40;;;;;;;12.23;5.28;;;;;;;1.58;100.00;97959.03;5043202;28;20197;-63
2023/01/19 10:45:22;;;;;;;10.10;5.15;;;;;;;1.97;100.00;97957.31;5047288;28;20025;-63
2023/01/19 10:47:48;;;;;;;12.18;4.72;;;;;;;2.53;100.00;97961.84;5045465;28;20037;-63
2023/01/19 10:50:32;;;;;;;11.85;5.40;;;;;;;2.50;100.00;97963.00;5042445;28;20377;-64
2023/01/19 10:53:02;;;;;;;12.18;5.43;;;;;;;1.85;100.00;97963.19;5048143;28;20081;-63
2023/01/19 10:55:37;;;;;;;13.35;5.93;;;;;;;1.29;100.00;97968.38;5052755;28;20078;-65
2023/01/19 10:58:04;;;;;;;12.82;5.75;;;;;;;1.20;100.00;97966.66;5068280;28;20542;-66
2023/01/19 11:00:41;;;;;;;11.52;5.45;;;;;;;1.17;100.00;97964.34;5048526;28;20247;-63
2023/01/19 11:03:30;;;;;;;12.98;5.53;;;;;;;1.06;100.00;97970.81;5038436;28;20123;-63
2023/01/19 11:06:14;;;;;;;14.43;6.00;;;;;;;1.27;100.00;97962.34;5047207;28;20037;-63
2023/01/19 11:08:41;;;;;;;11.65;6.03;;;;;;;1.48;100.00;97962.69;5062895;28;20071;-62
2023/01/19 11:11:07;;;;;;;19.42;6.18;;;;;;;1.61;100.00;97964.88;5036935;28;20033;-62
2023/01/19 11:13:35;;;;;;;12.68;5.75;;;;;;;1.57;100.00;97960.03;5044845;28;20462;-65
2023/01/19 11:16:07;;;;;;;13.43;6.68;;;;;;;1.78;100.00;97949.66;5046509;28;20040;-65
2023/01/19 11:18:37;;;;;;;12.13;5.80;;;;;;;1.96;100.00;97958.34;5047407;28;20166;-65
2023/01/19 11:21:12;;;;;;;14.52;5.90;;;;;;;2.25;100.00;97956.91;5033924;28;20647;-65
2023/01/19 11:23:50;;;;;;;16.58;5.57;;;;;;;2.51;100.00;97948.66;5044573;28;20036;-65
2023/01/19 11:26:33;;;;;;;13.55;5.75;;;;;;;2.83;100.00;97952.19;5041339;28;20179;-65
2023/01/19 11:29:01;;;;;;;11.02;4.93;;;;;;;3.60;100.00;97943.31;5054870;28;20047;-65
2023/01/19 11:31:26;;;;;;;16.67;5.93;;;;;;;4.32;100.00;97945.44;5045456;28;20041;-65
2023/01/19 11:33:54;;;;;;;10.05;5.63;;;;;;;4.40;100.00;97937.31;5040407;28;20435;-65